^^
Saratoga-Weather Station Historical Data
Daily Summary for March 21, 2021 Units:  Both    English   Metric
Daily Weekly Monthly Yearly Custom
  High: Low: Average:
Temperature: 64.8 °F /  18.2 °C 53.4 °F /  11.9 °C 57 °F /  13.9 °C
Dew Point: 52.5 °F /  11.4 °C 47.3 °F /  8.5 °C 50.7 °F /  10.4 °C
Humidity: 93% 55% 81%
Wind Speed: 8mph /  12.9km/h - 1mph /  1.6km/h
Wind Gust: 11mph /  17.7km/h - -
Wind- - SSE
Pressure: 30.4 in /  1027.8 hPa 30.2 in /  1022.4 hPa -
Precipitation: 0 in /  0.0 mm    
Historical Graphs
 
 
Tabular Data for March 21, 2021
Time Temperature Dew Point Pressure Wind Wind Speed Wind Gust Humidity Rainfall Rate (Hourly) solar
00:02 55.9 °F /  13.3 °C 52.5 °F /  11.4 °C 30.2in /  1022.7hPa Calm     88% 0in /  0.0mm 0 W/m2
00:07 55.8 °F /  13.2 °C 52.3 °F /  11.3 °C 30.2in /  1022.7hPa Calm     88% 0in /  0.0mm 0 W/m2
00:12 55.6 °F /  13.1 °C 52.3 °F /  11.3 °C 30.2in /  1022.4hPa ESE 0.9mph /  1.4km/h 1mph /  1.6km/h 89% 0in /  0.0mm 0 W/m2
00:30 55 °F /  12.8 °C 52.5 °F /  11.4 °C 30.2in /  1022.7hPa Calm     91% 0in /  0.0mm 0 W/m2
00:35 55 °F /  12.8 °C 52.5 °F /  11.4 °C 30.2in /  1022.7hPa Calm     91% 0in /  0.0mm 0 W/m2
00:40 55 °F /  12.8 °C 52.5 °F /  11.4 °C 30.2in /  1022.7hPa Calm     91% 0in /  0.0mm 0 W/m2
00:45 54.9 °F /  12.7 °C 52.3 °F /  11.3 °C 30.2in /  1022.7hPa Calm     91% 0in /  0.0mm 0 W/m2
00:50 54.7 °F /  12.6 °C 52.2 °F /  11.2 °C 30.2in /  1022.7hPa Calm     91% 0in /  0.0mm 0 W/m2
00:55 54.7 °F /  12.6 °C 52.2 °F /  11.2 °C 30.2in /  1022.7hPa Calm     91% 0in /  0.0mm 0 W/m2
01:01 54.5 °F /  12.5 °C 52 °F /  11.1 °C 30.2in /  1023.0hPa Calm     91% 0in /  0.0mm 0 W/m2
01:06 54.5 °F /  12.5 °C 52 °F /  11.1 °C 30.2in /  1023.0hPa ESE 0.9mph /  1.4km/h 1mph /  1.6km/h 91% 0in /  0.0mm 0 W/m2
01:11 54.7 °F /  12.6 °C 52.3 °F /  11.3 °C 30.2in /  1023.0hPa ESE 0.9mph /  1.4km/h 1mph /  1.6km/h 92% 0in /  0.0mm 0 W/m2
01:16 54.7 °F /  12.6 °C 52.3 °F /  11.3 °C 30.2in /  1023.0hPa Calm   1mph /  1.6km/h 92% 0in /  0.0mm 0 W/m2
01:21 54.9 °F /  12.7 °C 52.3 °F /  11.3 °C 30.2in /  1023.0hPa Calm     91% 0in /  0.0mm 0 W/m2
01:26 54.9 °F /  12.7 °C 52.3 °F /  11.3 °C 30.2in /  1023.0hPa ESE 0.9mph /  1.4km/h 1mph /  1.6km/h 91% 0in /  0.0mm 0 W/m2
01:31 54.9 °F /  12.7 °C 52.3 °F /  11.3 °C 30.2in /  1023.0hPa Calm     91% 0in /  0.0mm 0 W/m2
01:36 54.9 °F /  12.7 °C 52.3 °F /  11.3 °C 30.2in /  1023.0hPa Calm     91% 0in /  0.0mm 0 W/m2
01:41 54.7 °F /  12.6 °C 52.2 °F /  11.2 °C 30.2in /  1022.7hPa Calm     91% 0in /  0.0mm 0 W/m2
01:46 54.7 °F /  12.6 °C 51.8 °F /  11 °C 30.2in /  1023.0hPa Calm     90% 0in /  0.0mm 0 W/m2
01:51 54.5 °F /  12.5 °C 51.6 °F /  10.9 °C 30.2in /  1023.0hPa Calm     90% 0in /  0.0mm 0 W/m2
01:56 54.3 °F /  12.4 °C 51.4 °F /  10.8 °C 30.2in /  1023.0hPa Calm     90% 0in /  0.0mm 0 W/m2
02:01 54.1 °F /  12.3 °C 51.3 °F /  10.7 °C 30.2in /  1023.0hPa Calm     90% 0in /  0.0mm 0 W/m2
02:06 54 °F /  12.2 °C 51.4 °F /  10.8 °C 30.2in /  1023.0hPa Calm     91% 0in /  0.0mm 0 W/m2
02:11 53.8 °F /  12.1 °C 51.3 °F /  10.7 °C 30.2in /  1023.0hPa Calm     91% 0in /  0.0mm 0 W/m2
02:16 53.6 °F /  12 °C 51.1 °F /  10.6 °C 30.2in /  1023.4hPa Calm     91% 0in /  0.0mm 0 W/m2
02:21 53.4 °F /  11.9 °C 50.9 °F /  10.5 °C 30.2in /  1023.4hPa Calm     91% 0in /  0.0mm 0 W/m2
02:40 53.8 °F /  12.1 °C 51.8 °F /  11 °C 30.2in /  1023.4hPa Calm     93% 0in /  0.0mm 0 W/m2
02:45 54 °F /  12.2 °C 52 °F /  11.1 °C 30.2in /  1023.4hPa Calm     93% 0in /  0.0mm 0 W/m2
02:50 54 °F /  12.2 °C 52 °F /  11.1 °C 30.2in /  1023.4hPa Calm     93% 0in /  0.0mm 0 W/m2
02:55 54.1 °F /  12.3 °C 51.8 °F /  11 °C 30.2in /  1023.4hPa Calm     92% 0in /  0.0mm 0 W/m2
03:00 54.1 °F /  12.3 °C 51.8 °F /  11 °C 30.2in /  1023.4hPa Calm     92% 0in /  0.0mm 0 W/m2
03:05 54.1 °F /  12.3 °C 51.8 °F /  11 °C 30.2in /  1023.4hPa Calm     92% 0in /  0.0mm 0 W/m2
03:10 54.1 °F /  12.3 °C 51.8 °F /  11 °C 30.2in /  1023.4hPa ESE 0.9mph /  1.4km/h 1mph /  1.6km/h 92% 0in /  0.0mm 0 W/m2
03:28 54.1 °F /  12.3 °C 51.6 °F /  10.9 °C 30.2in /  1023.4hPa Calm     91% 0in /  0.0mm 0 W/m2
03:33 54.1 °F /  12.3 °C 51.6 °F /  10.9 °C 30.2in /  1023.4hPa Calm     91% 0in /  0.0mm 0 W/m2
03:38 54 °F /  12.2 °C 51.4 °F /  10.8 °C 30.2in /  1023.4hPa Calm     91% 0in /  0.0mm 0 W/m2
03:44 54 °F /  12.2 °C 51.4 °F /  10.8 °C 30.2in /  1023.4hPa Calm     91% 0in /  0.0mm 0 W/m2
03:49 54 °F /  12.2 °C 51.4 °F /  10.8 °C 30.2in /  1023.4hPa ESE 0.9mph /  1.4km/h 1mph /  1.6km/h 91% 0in /  0.0mm 0 W/m2
03:54 54 °F /  12.2 °C 51.4 °F /  10.8 °C 30.2in /  1023.4hPa Calm     91% 0in /  0.0mm 0 W/m2
03:59 53.8 °F /  12.1 °C 51.3 °F /  10.7 °C 30.2in /  1023.7hPa Calm     91% 0in /  0.0mm 0 W/m2
04:04 53.8 °F /  12.1 °C 51.3 °F /  10.7 °C 30.2in /  1023.7hPa Calm     91% 0in /  0.0mm 0 W/m2
04:09 53.8 °F /  12.1 °C 51.3 °F /  10.7 °C 30.2in /  1023.7hPa Calm     91% 0in /  0.0mm 0 W/m2
04:14 53.6 °F /  12 °C 51.1 °F /  10.6 °C 30.2in /  1023.4hPa Calm     91% 0in /  0.0mm 0 W/m2
04:19 53.4 °F /  11.9 °C 50.5 °F /  10.3 °C 30.2in /  1023.7hPa Calm     90% 0in /  0.0mm 0 W/m2
04:24 53.4 °F /  11.9 °C 50.9 °F /  10.5 °C 30.2in /  1023.7hPa Calm     91% 0in /  0.0mm 0 W/m2
04:29 53.4 °F /  11.9 °C 50.9 °F /  10.5 °C 30.2in /  1023.7hPa Calm     91% 0in /  0.0mm 0 W/m2
04:34 53.4 °F /  11.9 °C 50.9 °F /  10.5 °C 30.2in /  1023.7hPa ESE 0.9mph /  1.4km/h 1mph /  1.6km/h 91% 0in /  0.0mm 0 W/m2
04:39 53.6 °F /  12 °C 51.1 °F /  10.6 °C 30.2in /  1023.7hPa Calm     91% 0in /  0.0mm 0 W/m2
04:44 53.6 °F /  12 °C 51.1 °F /  10.6 °C 30.2in /  1024.0hPa Calm     91% 0in /  0.0mm 0 W/m2
04:49 53.8 °F /  12.1 °C 51.3 °F /  10.7 °C 30.2in /  1024.0hPa Calm     91% 0in /  0.0mm 0 W/m2
04:54 53.8 °F /  12.1 °C 51.3 °F /  10.7 °C 30.2in /  1023.7hPa Calm     91% 0in /  0.0mm 0 W/m2
04:59 53.8 °F /  12.1 °C 51.3 °F /  10.7 °C 30.2in /  1024.0hPa Calm     91% 0in /  0.0mm 0 W/m2
05:04 53.8 °F /  12.1 °C 50.9 °F /  10.5 °C 30.2in /  1023.7hPa Calm     90% 0in /  0.0mm 0 W/m2
05:09 53.6 °F /  12 °C 50.7 °F /  10.4 °C 30.2in /  1024.0hPa Calm     90% 0in /  0.0mm 0 W/m2
05:14 53.6 °F /  12 °C 50.7 °F /  10.4 °C 30.2in /  1023.7hPa Calm     90% 0in /  0.0mm 0 W/m2
05:19 53.8 °F /  12.1 °C 51.3 °F /  10.7 °C 30.2in /  1023.7hPa Calm     91% 0in /  0.0mm 0 W/m2
05:24 53.6 °F /  12 °C 51.1 °F /  10.6 °C 30.2in /  1023.7hPa Calm     91% 0in /  0.0mm 0 W/m2
05:29 53.6 °F /  12 °C 51.1 °F /  10.6 °C 30.2in /  1024.0hPa Calm     91% 0in /  0.0mm 0 W/m2
05:34 53.6 °F /  12 °C 51.1 °F /  10.6 °C 30.2in /  1024.0hPa Calm     91% 0in /  0.0mm 0 W/m2
05:39 53.4 °F /  11.9 °C 50.9 °F /  10.5 °C 30.2in /  1024.0hPa Calm     91% 0in /  0.0mm 0 W/m2
05:44 53.4 °F /  11.9 °C 50.9 °F /  10.5 °C 30.2in /  1024.0hPa Calm     91% 0in /  0.0mm 0 W/m2
05:49 53.6 °F /  12 °C 51.3 °F /  10.7 °C 30.2in /  1024.0hPa Calm     92% 0in /  0.0mm 0 W/m2
05:54 53.8 °F /  12.1 °C 51.4 °F /  10.8 °C 30.2in /  1024.0hPa Calm     92% 0in /  0.0mm 0 W/m2
05:59 53.8 °F /  12.1 °C 51.4 °F /  10.8 °C 30.2in /  1024.0hPa Calm   1mph /  1.6km/h 92% 0in /  0.0mm 0 W/m2
06:04 54 °F /  12.2 °C 51.6 °F /  10.9 °C 30.2in /  1024.0hPa Calm     92% 0in /  0.0mm 0 W/m2
06:09 54 °F /  12.2 °C 51.6 °F /  10.9 °C 30.2in /  1024.0hPa Calm     92% 0in /  0.0mm 0 W/m2
06:14 54.1 °F /  12.3 °C 51.8 °F /  11 °C 30.2in /  1024.0hPa Calm   2mph /  3.2km/h 92% 0in /  0.0mm 0 W/m2
06:19 54.1 °F /  12.3 °C 51.8 °F /  11 °C 30.2in /  1024.0hPa Calm     92% 0in /  0.0mm 0 W/m2
06:40 54.1 °F /  12.3 °C 51.8 °F /  11 °C 30.3in /  1024.4hPa Calm     92% 0in /  0.0mm 0 W/m2
06:45 54.1 °F /  12.3 °C 51.8 °F /  11 °C 30.3in /  1024.4hPa Calm     92% 0in /  0.0mm 0 W/m2
06:50 54.1 °F /  12.3 °C 51.8 °F /  11 °C 30.3in /  1024.4hPa Calm     92% 0in /  0.0mm 0 W/m2
06:55 54 °F /  12.2 °C 51.6 °F /  10.9 °C 30.3in /  1024.4hPa Calm   2mph /  3.2km/h 92% 0in /  0.0mm 0 W/m2
07:00 54 °F /  12.2 °C 51.6 °F /  10.9 °C 30.3in /  1024.7hPa Calm     92% 0in /  0.0mm 0 W/m2
07:05 54.1 °F /  12.3 °C 51.8 °F /  11 °C 30.3in /  1024.7hPa Calm   2mph /  3.2km/h 92% 0in /  0.0mm 0 W/m2
07:10 54 °F /  12.2 °C 51.6 °F /  10.9 °C 30.3in /  1024.7hPa Calm   1mph /  1.6km/h 92% 0in /  0.0mm 0 W/m2
07:15 54.1 °F /  12.3 °C 51.6 °F /  10.9 °C 30.3in /  1024.7hPa Calm   1mph /  1.6km/h 91% 0in /  0.0mm 0 W/m2
07:20 54.1 °F /  12.3 °C 51.6 °F /  10.9 °C 30.3in /  1025.1hPa Calm   2mph /  3.2km/h 91% 0in /  0.0mm 0 W/m2
07:25 54 °F /  12.2 °C 51.4 °F /  10.8 °C 30.3in /  1025.1hPa Calm   1mph /  1.6km/h 91% 0in /  0.0mm 0 W/m2
07:30 54 °F /  12.2 °C 51.4 °F /  10.8 °C 30.3in /  1025.1hPa Calm   2mph /  3.2km/h 91% 0in /  0.0mm 7 W/m2
07:35 54 °F /  12.2 °C 51.4 °F /  10.8 °C 30.3in /  1025.1hPa NE 0.9mph /  1.4km/h 2mph /  3.2km/h 91% 0in /  0.0mm 9 W/m2
07:40 54 °F /  12.2 °C 51.1 °F /  10.6 °C 30.3in /  1025.1hPa Calm   1mph /  1.6km/h 90% 0in /  0.0mm 12 W/m2
07:45 54 °F /  12.2 °C 51.1 °F /  10.6 °C 30.3in /  1025.4hPa Calm   1mph /  1.6km/h 90% 0in /  0.0mm 16 W/m2
07:50 54 °F /  12.2 °C 51.4 °F /  10.8 °C 30.3in /  1025.4hPa Calm     91% 0in /  0.0mm 19 W/m2
07:55 54 °F /  12.2 °C 51.4 °F /  10.8 °C 30.3in /  1025.7hPa Calm   2mph /  3.2km/h 91% 0in /  0.0mm 21 W/m2
08:00 54 °F /  12.2 °C 51.4 °F /  10.8 °C 30.3in /  1025.7hPa NNW 0.9mph /  1.4km/h 3mph /  4.8km/h 91% 0in /  0.0mm 21 W/m2
08:05 54.1 °F /  12.3 °C 51.3 °F /  10.7 °C 30.3in /  1025.7hPa Calm   1mph /  1.6km/h 90% 0in /  0.0mm 30 W/m2
08:10 54.1 °F /  12.3 °C 51.3 °F /  10.7 °C 30.3in /  1025.7hPa SSE 2mph /  3.2km/h 3mph /  4.8km/h 90% 0in /  0.0mm 26 W/m2
08:15 54.1 °F /  12.3 °C 51.3 °F /  10.7 °C 30.3in /  1025.7hPa Calm   2mph /  3.2km/h 90% 0in /  0.0mm 32 W/m2
08:20 54.3 °F /  12.4 °C 51.1 °F /  10.6 °C 30.3in /  1026.1hPa Calm     89% 0in /  0.0mm 40 W/m2
08:25 54.3 °F /  12.4 °C 51.1 °F /  10.6 °C 30.3in /  1025.7hPa NW 0.9mph /  1.4km/h 1mph /  1.6km/h 89% 0in /  0.0mm 53 W/m2
08:30 54.5 °F /  12.5 °C 51.3 °F /  10.7 °C 30.3in /  1026.1hPa Calm     89% 0in /  0.0mm 62 W/m2
08:36 54.5 °F /  12.5 °C 51.3 °F /  10.7 °C 30.3in /  1026.1hPa WNW 0.9mph /  1.4km/h 4mph /  6.4km/h 89% 0in /  0.0mm 63 W/m2
08:41 54.7 °F /  12.6 °C 51.4 °F /  10.8 °C 30.3in /  1026.1hPa Calm     89% 0in /  0.0mm 72 W/m2
08:46 54.9 °F /  12.7 °C 51.4 °F /  10.8 °C 30.3in /  1026.1hPa Calm   2mph /  3.2km/h 88% 0in /  0.0mm 79 W/m2
08:51 54.9 °F /  12.7 °C 51.4 °F /  10.8 °C 30.3in /  1026.1hPa East 0.9mph /  1.4km/h 2mph /  3.2km/h 88% 0in /  0.0mm 88 W/m2
08:56 55 °F /  12.8 °C 51.3 °F /  10.7 °C 30.3in /  1026.4hPa Calm   3mph /  4.8km/h 87% 0in /  0.0mm 90 W/m2
09:01 55 °F /  12.8 °C 51.3 °F /  10.7 °C 30.3in /  1026.4hPa Calm   1mph /  1.6km/h 87% 0in /  0.0mm 77 W/m2
09:06 55.2 °F /  12.9 °C 51.4 °F /  10.8 °C 30.3in /  1026.4hPa Calm   2mph /  3.2km/h 87% 0in /  0.0mm 169 W/m2
09:11 55.4 °F /  13 °C 51.6 °F /  10.9 °C 30.3in /  1026.4hPa ENE 0.9mph /  1.4km/h 1mph /  1.6km/h 87% 0in /  0.0mm 144 W/m2
09:16 55.6 °F /  13.1 °C 51.8 °F /  11 °C 30.3in /  1026.8hPa Calm   1mph /  1.6km/h 87% 0in /  0.0mm 139 W/m2
09:21 55.9 °F /  13.3 °C 51.8 °F /  11 °C 30.3in /  1026.8hPa NE 2mph /  3.2km/h 3mph /  4.8km/h 86% 0in /  0.0mm 232 W/m2
09:26 56.1 °F /  13.4 °C 52 °F /  11.1 °C 30.3in /  1026.8hPa Calm   2mph /  3.2km/h 86% 0in /  0.0mm 137 W/m2
09:45 56.5 °F /  13.6 °C 51.4 °F /  10.8 °C 30.3in /  1026.8hPa North 2.9mph /  4.7km/h 3mph /  4.8km/h 83% 0in /  0.0mm 139 W/m2
09:50 56.5 °F /  13.6 °C 51.1 °F /  10.6 °C 30.3in /  1026.8hPa East 2mph /  3.2km/h 5mph /  8km/h 82% 0in /  0.0mm 155 W/m2
09:55 56.7 °F /  13.7 °C 51.3 °F /  10.7 °C 30.3in /  1026.8hPa Calm   3mph /  4.8km/h 82% 0in /  0.0mm 165 W/m2
10:00 56.8 °F /  13.8 °C 51.1 °F /  10.6 °C 30.3in /  1026.8hPa North 2mph /  3.2km/h 5mph /  8km/h 81% 0in /  0.0mm 181 W/m2
10:05 57 °F /  13.9 °C 50.9 °F /  10.5 °C 30.3in /  1026.8hPa Calm   3mph /  4.8km/h 80% 0in /  0.0mm 188 W/m2
10:10 57.2 °F /  14 °C 51.1 °F /  10.6 °C 30.3in /  1026.8hPa NNE 2mph /  3.2km/h 4mph /  6.4km/h 80% 0in /  0.0mm 190 W/m2
10:15 57.4 °F /  14.1 °C 50.9 °F /  10.5 °C 30.3in /  1026.8hPa ENE 2.9mph /  4.7km/h 3mph /  4.8km/h 79% 0in /  0.0mm 380 W/m2
10:20 57.7 °F /  14.3 °C 50.9 °F /  10.5 °C 30.3in /  1026.8hPa ENE 2.9mph /  4.7km/h 5mph /  8km/h 78% 0in /  0.0mm 387 W/m2
10:25 58.3 °F /  14.6 °C 51.4 °F /  10.8 °C 30.3in /  1026.8hPa NE 0.9mph /  1.4km/h 6mph /  9.7km/h 78% 0in /  0.0mm 403 W/m2
10:30 58.6 °F /  14.8 °C 51.4 °F /  10.8 °C 30.3in /  1026.8hPa ENE 2.9mph /  4.7km/h 3mph /  4.8km/h 77% 0in /  0.0mm 420 W/m2
10:35 58.8 °F /  14.9 °C 50.9 °F /  10.5 °C 30.3in /  1027.1hPa East 6mph /  9.7km/h 6mph /  9.7km/h 75% 0in /  0.0mm 427 W/m2
10:40 59 °F /  15 °C 50.7 °F /  10.4 °C 30.3in /  1027.1hPa ENE 2.9mph /  4.7km/h 6mph /  9.7km/h 74% 0in /  0.0mm 436 W/m2
10:45 59.2 °F /  15.1 °C 50.9 °F /  10.5 °C 30.3in /  1027.1hPa Calm   2mph /  3.2km/h 74% 0in /  0.0mm 439 W/m2
10:50 59.4 °F /  15.2 °C 51.4 °F /  10.8 °C 30.3in /  1027.1hPa ENE 2mph /  3.2km/h 3mph /  4.8km/h 75% 0in /  0.0mm 480 W/m2
10:55 59.7 °F /  15.4 °C 51.1 °F /  10.6 °C 30.3in /  1027.4hPa NE 2.9mph /  4.7km/h 3mph /  4.8km/h 73% 0in /  0.0mm 462 W/m2
11:00 60.1 °F /  15.6 °C 51.1 °F /  10.6 °C 30.3in /  1027.4hPa Calm   3mph /  4.8km/h 72% 0in /  0.0mm 468 W/m2
11:05 60.3 °F /  15.7 °C 51.3 °F /  10.7 °C 30.3in /  1027.4hPa ENE 2mph /  3.2km/h 4mph /  6.4km/h 72% 0in /  0.0mm 483 W/m2
11:10 60.3 °F /  15.7 °C 51.3 °F /  10.7 °C 30.3in /  1027.4hPa Calm   4mph /  6.4km/h 72% 0in /  0.0mm 504 W/m2
11:15 60.4 °F /  15.8 °C 51.1 °F /  10.6 °C 30.3in /  1027.4hPa East 2.9mph /  4.7km/h 7mph /  11.3km/h 71% 0in /  0.0mm 497 W/m2
11:20 60.4 °F /  15.8 °C 50.5 °F /  10.3 °C 30.3in /  1027.4hPa East 0.9mph /  1.4km/h 7mph /  11.3km/h 70% 0in /  0.0mm 561 W/m2
11:25 60.8 °F /  16 °C 50.2 °F /  10.1 °C 30.3in /  1027.4hPa ENE 4mph /  6.4km/h 6mph /  9.7km/h 68% 0in /  0.0mm 146 W/m2
11:30 60.6 °F /  15.9 °C 49.6 °F /  9.8 °C 30.3in /  1027.4hPa SSE 0.9mph /  1.4km/h 7mph /  11.3km/h 67% 0in /  0.0mm 550 W/m2
11:35 61 °F /  16.1 °C 50.4 °F /  10.2 °C 30.3in /  1027.4hPa Calm   5mph /  8km/h 68% 0in /  0.0mm 485 W/m2
11:40 61.2 °F /  16.2 °C 49.6 °F /  9.8 °C 30.3in /  1027.4hPa NE 2.9mph /  4.7km/h 4mph /  6.4km/h 66% 0in /  0.0mm 584 W/m2
11:45 61.3 °F /  16.3 °C 49.5 °F /  9.7 °C 30.3in /  1027.4hPa WNW 2.9mph /  4.7km/h 4mph /  6.4km/h 65% 0in /  0.0mm 550 W/m2
11:50 61.5 °F /  16.4 °C 49.6 °F /  9.8 °C 30.3in /  1027.4hPa East 0.9mph /  1.4km/h 4mph /  6.4km/h 65% 0in /  0.0mm 563 W/m2
11:55 62.1 °F /  16.7 °C 49.8 °F /  9.9 °C 30.3in /  1027.4hPa Calm   3mph /  4.8km/h 64% 0in /  0.0mm 577 W/m2
12:00 62.2 °F /  16.8 °C 48.6 °F /  9.2 °C 30.4in /  1027.8hPa ESE 6.9mph /  11.1km/h 7mph /  11.3km/h 61% 0in /  0.0mm 573 W/m2
12:05 62.4 °F /  16.9 °C 48.7 °F /  9.3 °C 30.4in /  1027.8hPa NE 2mph /  3.2km/h 3mph /  4.8km/h 61% 0in /  0.0mm 575 W/m2
12:10 62.8 °F /  17.1 °C 48.7 °F /  9.3 °C 30.4in /  1027.8hPa NE 2.9mph /  4.7km/h 11mph /  17.7km/h 60% 0in /  0.0mm 585 W/m2
12:15 63 °F /  17.2 °C 49.3 °F /  9.6 °C 30.4in /  1027.8hPa Calm   7mph /  11.3km/h 61% 0in /  0.0mm 619 W/m2
12:20 63 °F /  17.2 °C 48 °F /  8.9 °C 30.4in /  1027.8hPa NNW 4mph /  6.4km/h 8mph /  12.9km/h 58% 0in /  0.0mm 661 W/m2
12:25 62.6 °F /  17 °C 48.6 °F /  9.2 °C 30.4in /  1027.8hPa NE 2.9mph /  4.7km/h 6mph /  9.7km/h 60% 0in /  0.0mm 179 W/m2
12:45 62.4 °F /  16.9 °C 47.8 °F /  8.8 °C 30.3in /  1027.4hPa ESE 6.9mph /  11.1km/h 7mph /  11.3km/h 59% 0in /  0.0mm 647 W/m2
12:50 63.1 °F /  17.3 °C 48.6 °F /  9.2 °C 30.3in /  1027.4hPa NE 8mph /  12.9km/h 8mph /  12.9km/h 59% 0in /  0.0mm 654 W/m2
12:56 63.5 °F /  17.5 °C 48 °F /  8.9 °C 30.3in /  1027.4hPa NW 0.9mph /  1.4km/h 4mph /  6.4km/h 57% 0in /  0.0mm 668 W/m2
13:01 63.9 °F /  17.7 °C 48.7 °F /  9.3 °C 30.3in /  1027.4hPa ESE 4mph /  6.4km/h 7mph /  11.3km/h 58% 0in /  0.0mm 664 W/m2
13:06 64.2 °F /  17.9 °C 48.2 °F /  9 °C 30.3in /  1027.4hPa NE 2mph /  3.2km/h 6mph /  9.7km/h 56% 0in /  0.0mm 680 W/m2
13:11 64.6 °F /  18.1 °C 48 °F /  8.9 °C 30.3in /  1027.4hPa NNW 2mph /  3.2km/h 5mph /  8km/h 55% 0in /  0.0mm 694 W/m2
13:16 64.2 °F /  17.9 °C 47.7 °F /  8.7 °C 30.3in /  1027.4hPa NNE 0.9mph /  1.4km/h 6mph /  9.7km/h 55% 0in /  0.0mm 573 W/m2
13:21 63.9 °F /  17.7 °C 48.4 °F /  9.1 °C 30.3in /  1027.4hPa North 2mph /  3.2km/h 4mph /  6.4km/h 57% 0in /  0.0mm 121 W/m2
13:26 63.7 °F /  17.6 °C 48.2 °F /  9 °C 30.3in /  1027.4hPa North 4mph /  6.4km/h 4mph /  6.4km/h 57% 0in /  0.0mm 686 W/m2
13:31 63.7 °F /  17.6 °C 48.2 °F /  9 °C 30.3in /  1027.4hPa North 0.9mph /  1.4km/h 5mph /  8km/h 57% 0in /  0.0mm 686 W/m2
13:36 64 °F /  17.8 °C 48.6 °F /  9.2 °C 30.3in /  1027.4hPa WNW 2mph /  3.2km/h 2mph /  3.2km/h 57% 0in /  0.0mm 526 W/m2
13:41 63.9 °F /  17.7 °C 47.8 °F /  8.8 °C 30.3in /  1027.4hPa NW 2mph /  3.2km/h 7mph /  11.3km/h 56% 0in /  0.0mm 181 W/m2
13:46 63.3 °F /  17.4 °C 47.8 °F /  8.8 °C 30.3in /  1027.4hPa NW 4.9mph /  7.9km/h 8mph /  12.9km/h 57% 0in /  0.0mm 666 W/m2
13:51 63.5 °F /  17.5 °C 48.4 °F /  9.1 °C 30.3in /  1027.4hPa ESE 2.9mph /  4.7km/h 4mph /  6.4km/h 58% 0in /  0.0mm 712 W/m2
13:56 63.7 °F /  17.6 °C 48.6 °F /  9.2 °C 30.3in /  1027.4hPa SE 0.9mph /  1.4km/h 4mph /  6.4km/h 58% 0in /  0.0mm 710 W/m2
14:01 63.9 °F /  17.7 °C 47.8 °F /  8.8 °C 30.3in /  1027.4hPa East 2mph /  3.2km/h 7mph /  11.3km/h 56% 0in /  0.0mm 721 W/m2
14:06 64 °F /  17.8 °C 47.5 °F /  8.6 °C 30.3in /  1027.4hPa WNW 4mph /  6.4km/h 4mph /  6.4km/h 55% 0in /  0.0mm 664 W/m2
14:11 63.9 °F /  17.7 °C 47.3 °F /  8.5 °C 30.3in /  1027.4hPa NW 2.9mph /  4.7km/h 6mph /  9.7km/h 55% 0in /  0.0mm 684 W/m2
14:16 63.9 °F /  17.7 °C 47.3 °F /  8.5 °C 30.4in /  1027.8hPa West 0.9mph /  1.4km/h 4mph /  6.4km/h 55% 0in /  0.0mm 527 W/m2
14:21 63.5 °F /  17.5 °C 47.5 °F /  8.6 °C 30.3in /  1027.4hPa North 2mph /  3.2km/h 4mph /  6.4km/h 56% 0in /  0.0mm 647 W/m2
14:26 63.3 °F /  17.4 °C 47.8 °F /  8.8 °C 30.4in /  1027.8hPa NNW 4.9mph /  7.9km/h 7mph /  11.3km/h 57% 0in /  0.0mm 570 W/m2
14:31 63.5 °F /  17.5 °C 48.4 °F /  9.1 °C 30.3in /  1027.4hPa NW 0.9mph /  1.4km/h 3mph /  4.8km/h 58% 0in /  0.0mm 605 W/m2
14:36 63.9 °F /  17.7 °C 48.4 °F /  9.1 °C 30.4in /  1027.8hPa WNW 2mph /  3.2km/h 6mph /  9.7km/h 57% 0in /  0.0mm 585 W/m2
14:41 64 °F /  17.8 °C 48.6 °F /  9.2 °C 30.3in /  1027.4hPa WNW 4mph /  6.4km/h 7mph /  11.3km/h 57% 0in /  0.0mm 547 W/m2
14:57 64.6 °F /  18.1 °C 48 °F /  8.9 °C 30.3in /  1027.4hPa North 0.9mph /  1.4km/h 7mph /  11.3km/h 55% 0in /  0.0mm 603 W/m2
15:02 64.8 °F /  18.2 °C 48.2 °F /  9 °C 30.3in /  1027.4hPa North 2.9mph /  4.7km/h 7mph /  11.3km/h 55% 0in /  0.0mm 543 W/m2
15:07 64.6 °F /  18.1 °C 48 °F /  8.9 °C 30.3in /  1027.4hPa NE 2.9mph /  4.7km/h 4mph /  6.4km/h 55% 0in /  0.0mm 482 W/m2
15:12 64.8 °F /  18.2 °C 48.2 °F /  9 °C 30.3in /  1027.4hPa Calm   4mph /  6.4km/h 55% 0in /  0.0mm 541 W/m2
Juneau County Weather
Compliments of Weather Underground - 2 mb